Time;durP1;ratioP1;P1;durP2;ratioP2;P2;SDS_P1;SDS_P2;PMS_P1;PMS_P2;Temp;Humidity;BMP_temperature;BMP_pressure;BME280_temperature;BME280_humidity;BME280_pressure;Samples;Min_cycle;Max_cycle;Signal;HPM_P1;HPM_P2
2021/03/20 00:01:22;;;;;;;2.37;1.40;;;12.50;97.70;;;;;;5125681;28;20456;-35
2021/03/20 00:03:53;;;;;;;3.37;2.30;;;12.50;98.10;;;;;;5126071;28;20458;-33
2021/03/20 00:06:26;;;;;;;4.40;1.70;;;12.30;98.70;;;;;;5125826;28;20451;-34
2021/03/20 00:08:58;;;;;;;4.87;2.80;;;12.40;99.20;;;;;;5125957;28;20445;-36
2021/03/20 00:11:29;;;;;;;2.50;1.93;;;12.40;99.50;;;;;;5125212;28;20475;-36
2021/03/20 00:14:00;;;;;;;1.93;1.40;;;12.30;99.10;;;;;;5124910;28;20455;-36
2021/03/20 00:16:30;;;;;;;3.20;1.90;;;12.20;99.90;;;;;;5122229;28;20992;-35
2021/03/20 00:19:00;;;;;;;1.90;1.60;;;12.00;99.90;;;;;;5124188;28;20566;-36
2021/03/20 00:21:30;;;;;;;3.53;1.35;;;11.80;99.90;;;;;;5124512;28;20558;-33
2021/03/20 00:24:02;;;;;;;2.17;1.30;;;11.60;99.90;;;;;;5125331;28;20213;-35
2021/03/20 00:26:32;;;;;;;2.78;1.70;;;11.20;99.90;;;;;;5124115;28;20551;-33
2021/03/20 00:29:02;;;;;;;4.70;2.70;;;10.70;99.90;;;;;;5124488;28;20221;-32
2021/03/20 00:31:32;;;;;;;2.55;1.20;;;10.50;99.90;;;;;;5123993;28;20217;-34
2021/03/20 00:34:03;;;;;;;3.45;1.40;;;10.30;99.90;;;;;;5124655;28;20209;-34
2021/03/20 00:36:33;;;;;;;5.03;1.33;;;10.10;99.90;;;;;;5124365;28;20225;-35
2021/03/20 00:39:08;;;;;;;2.03;1.20;;;10.00;99.90;;;;;;5124790;28;20321;-36
2021/03/20 00:41:57;;;;;;;2.55;1.65;;;10.00;99.90;;;;;;5122833;28;20232;-35
2021/03/20 00:44:27;;;;;;;3.50;1.75;;;9.90;99.90;;;;;;5123820;28;20249;-34
2021/03/20 00:46:57;;;;;;;1.23;1.10;;;9.80;99.90;;;;;;5121288;28;20217;-33
2021/03/20 00:49:28;;;;;;;2.40;1.48;;;9.70;99.90;;;;;;5123968;28;20204;-33
2021/03/20 00:51:58;;;;;;;1.52;1.42;;;9.60;99.90;;;;;;5124475;28;20266;-34
2021/03/20 00:54:29;;;;;;;3.58;1.52;;;9.50;99.90;;;;;;5124674;28;20522;-34
2021/03/20 00:56:59;;;;;;;1.55;1.35;;;9.60;99.90;;;;;;5122480;28;20228;-33
2021/03/20 00:59:29;;;;;;;4.20;1.33;;;9.60;99.90;;;;;;5124219;28;20250;-34
2021/03/20 01:01:59;;;;;;;5.10;1.42;;;9.40;99.90;;;;;;5123294;28;20648;-34
2021/03/20 01:04:29;;;;;;;1.35;1.25;;;9.50;99.90;;;;;;5121989;28;20208;-34
2021/03/20 01:06:59;;;;;;;3.10;1.70;;;9.50;99.90;;;;;;5124020;28;20229;-34
2021/03/20 01:09:31;;;;;;;1.70;1.50;;;9.60;99.90;;;;;;5125310;27;20602;-35
2021/03/20 01:12:01;;;;;;;3.63;2.05;;;9.60;99.90;;;;;;5123708;28;20200;-35
2021/03/20 01:14:31;;;;;;;3.13;2.15;;;9.50;99.90;;;;;;5124396;28;20211;-35
2021/03/20 01:17:01;;;;;;;2.47;1.80;;;9.50;99.90;;;;;;5123521;28;20228;-35
2021/03/20 01:19:31;;;;;;;3.05;2.22;;;9.50;99.90;;;;;;5122852;28;20201;-35
2021/03/20 01:22:01;;;;;;;3.80;2.28;;;9.50;99.90;;;;;;5125385;27;20205;-35
2021/03/20 01:24:32;;;;;;;2.60;2.40;;;9.50;99.90;;;;;;5128535;27;20201;-33
2021/03/20 01:27:02;;;;;;;2.30;1.70;;;9.40;99.90;;;;;;5122744;28;20226;-34
2021/03/20 01:29:32;;;;;;;5.20;2.60;;;9.30;99.90;;;;;;5123602;28;20201;-34
2021/03/20 01:32:02;;;;;;;2.80;2.00;;;9.30;99.90;;;;;;5120722;28;20230;-35
2021/03/20 01:34:32;;;;;;;5.25;2.30;;;9.30;99.90;;;;;;5122574;28;20280;-34
2021/03/20 01:37:02;;;;;;;2.58;2.08;;;9.30;99.90;;;;;;5125186;27;20583;-34
2021/03/20 01:40:10;;;;;;;4.22;1.60;;;9.30;99.90;;;;;;5123617;28;20232;-34
2021/03/20 01:42:43;;;;;;;3.22;1.23;;;9.30;99.90;;;;;;5121733;28;20212;-35
2021/03/20 01:45:17;;;;;;;1.38;1.15;;;9.20;99.90;;;;;;5124163;28;20281;-35
2021/03/20 01:47:53;;;;;;;1.70;1.60;;;9.20;99.90;;;;;;5123804;28;20659;-35
2021/03/20 01:50:31;;;;;;;1.60;1.50;;;9.20;99.90;;;;;;5122585;28;20210;-35
2021/03/20 01:53:07;;;;;;;2.42;1.80;;;9.10;99.90;;;;;;5123611;28;20204;-36
2021/03/20 01:55:38;;;;;;;3.05;1.70;;;9.10;99.90;;;;;;5123863;28;20274;-35
2021/03/20 01:58:09;;;;;;;2.00;1.80;;;9.10;99.90;;;;;;5122200;28;20195;-35
2021/03/20 02:00:42;;;;;;;4.28;1.65;;;9.10;99.90;;;;;;5122986;28;20362;-35
2021/03/20 02:03:14;;;;;;;1.60;1.02;;;9.20;99.90;;;;;;5123135;28;20257;-36
2021/03/20 02:05:45;;;;;;;1.98;1.50;;;9.10;99.90;;;;;;5122830;28;20264;-36
2021/03/20 02:08:18;;;;;;;2.67;1.48;;;9.10;99.90;;;;;;5123215;28;20669;-36
2021/03/20 02:10:51;;;;;;;4.75;1.50;;;9.10;99.90;;;;;;5122563;28;20207;-34
2021/03/20 02:13:35;;;;;;;1.70;1.33;;;9.00;99.90;;;;;;5123080;28;20184;-33
2021/03/20 02:16:11;;;;;;;1.70;1.60;;;9.00;99.90;;;;;;5123586;28;20211;-33
2021/03/20 02:18:47;;;;;;;1.80;1.52;;;9.00;99.90;;;;;;5122879;28;20264;-33
2021/03/20 02:21:23;;;;;;;1.70;1.60;;;9.00;99.90;;;;;;5122117;28;20213;-35
2021/03/20 02:24:31;;;;;;;2.33;1.98;;;9.00;99.90;;;;;;5123339;28;20199;-35
2021/03/20 02:27:38;;;;;;;2.30;1.20;;;8.90;99.90;;;;;;5121748;28;20208;-35
2021/03/20 02:30:49;;;;;;;2.80;1.58;;;8.90;99.90;;;;;;5114446;28;20212;-34
2021/03/20 02:33:42;;;;;;;1.35;1.25;;;8.80;99.90;;;;;;5099160;28;20510;-36
2021/03/20 02:36:26;;;;;;;3.65;1.40;;;8.70;99.90;;;;;;5122688;28;20331;-36
2021/03/20 02:39:02;;;;;;;3.95;1.55;;;8.70;99.90;;;;;;5124643;28;20211;-36
2021/03/20 02:41:37;;;;;;;2.85;2.10;;;8.80;99.90;;;;;;5123744;28;20231;-36
2021/03/20 02:44:12;;;;;;;3.22;1.30;;;8.80;99.90;;;;;;5127521;28;20202;-34
2021/03/20 02:46:47;;;;;;;3.50;2.03;;;8.80;99.90;;;;;;5126159;28;20305;-35
2021/03/20 02:49:25;;;;;;;3.08;1.38;;;8.70;99.90;;;;;;5123385;28;20199;-34
2021/03/20 02:51:59;;;;;;;3.67;1.80;;;8.70;99.90;;;;;;5122171;28;20257;-34
2021/03/20 02:54:35;;;;;;;2.40;1.73;;;8.70;99.90;;;;;;5125339;28;20565;-35
2021/03/20 02:57:10;;;;;;;2.17;1.85;;;8.60;99.90;;;;;;5126065;28;20227;-37
2021/03/20 02:59:42;;;;;;;2.80;1.70;;;8.70;99.90;;;;;;5125962;28;20207;-37
2021/03/20 03:02:16;;;;;;;2.17;1.50;;;8.60;99.90;;;;;;5125949;28;20225;-36
2021/03/20 03:04:52;;;;;;;1.67;1.30;;;8.60;99.90;;;;;;5124952;28;20263;-36
2021/03/20 03:07:28;;;;;;;2.30;1.85;;;8.60;99.90;;;;;;5125340;28;20192;-37
2021/03/20 03:10:04;;;;;;;2.78;1.85;;;8.60;99.90;;;;;;5126664;28;20228;-36
2021/03/20 03:12:39;;;;;;;1.75;1.63;;;8.60;99.90;;;;;;5125681;28;20243;-35
2021/03/20 03:15:14;;;;;;;2.42;1.30;;;8.60;99.90;;;;;;5126733;28;20650;-35
2021/03/20 03:17:50;;;;;;;2.97;1.25;;;8.60;99.90;;;;;;5126492;28;20252;-35
2021/03/20 03:20:24;;;;;;;4.32;1.33;;;8.60;99.90;;;;;;5120129;28;20286;-35
2021/03/20 03:22:58;;;;;;;3.25;1.60;;;8.50;99.90;;;;;;5123596;28;20672;-35
2021/03/20 03:25:31;;;;;;;1.15;1.10;;;8.50;99.90;;;;;;5126432;28;20196;-35
2021/03/20 03:28:05;;;;;;;2.67;1.20;;;8.50;99.90;;;;;;5124677;28;20664;-35
2021/03/20 03:30:37;;;;;;;1.92;1.20;;;8.50;99.90;;;;;;5127542;27;20245;-35
2021/03/20 03:33:13;;;;;;;1.70;1.52;;;8.40;99.90;;;;;;5122363;27;20206;-35
2021/03/20 03:35:47;;;;;;;2.30;1.30;;;8.40;99.90;;;;;;5126510;28;20253;-35
2021/03/20 03:38:25;;;;;;;1.92;1.30;;;8.30;99.90;;;;;;5120700;28;20229;-36
2021/03/20 03:41:02;;;;;;;1.52;1.20;;;8.30;99.90;;;;;;5125622;28;20235;-36
2021/03/20 03:43:32;;;;;;;2.90;1.80;;;8.30;99.90;;;;;;5124965;28;20281;-36
2021/03/20 03:46:02;;;;;;;2.88;1.73;;;8.30;99.90;;;;;;5125343;28;20200;-36
2021/03/20 03:48:32;;;;;;;2.85;1.20;;;8.20;99.90;;;;;;5120524;28;20199;-35
2021/03/20 03:51:12;;;;;;;1.42;1.10;;;8.20;99.90;;;;;;5125333;28;20547;-36
2021/03/20 03:53:43;;;;;;;3.10;1.30;;;8.20;99.90;;;;;;5120597;28;20207;-36
2021/03/20 03:56:32;;;;;;;3.35;1.20;;;8.20;99.90;;;;;;5124149;28;20284;-37
2021/03/20 03:59:13;;;;;;;1.42;1.33;;;8.20;99.90;;;;;;5125297;28;20196;-37
2021/03/20 04:01:52;;;;;;;1.38;1.15;;;8.10;99.90;;;;;;5124755;28;20200;-37
2021/03/20 04:04:38;;;;;;;1.63;1.17;;;8.10;99.90;;;;;;5124389;28;20240;-36
2021/03/20 04:07:44;;;;;;;1.48;1.38;;;8.00;99.90;;;;;;5123021;28;20211;-37
2021/03/20 04:10:21;;;;;;;2.25;1.20;;;8.00;99.90;;;;;;5062182;28;20217;-36
2021/03/20 04:12:59;;;;;;;2.78;1.40;;;8.00;99.90;;;;;;5058349;28;20584;-36
2021/03/20 04:15:43;;;;;;;2.30;1.70;;;8.00;99.90;;;;;;5060519;28;20236;-37
2021/03/20 04:18:23;;;;;;;2.63;1.33;;;8.00;99.90;;;;;;5058702;28;20216;-37
2021/03/20 04:21:04;;;;;;;2.90;1.70;;;8.00;99.90;;;;;;5061361;28;20276;-37
2021/03/20 04:23:37;;;;;;;1.85;1.67;;;8.00;99.90;;;;;;5061688;28;20236;-36
2021/03/20 04:26:18;;;;;;;2.67;1.50;;;7.90;99.90;;;;;;5060834;28;20240;-37
2021/03/20 04:28:53;;;;;;;1.60;1.50;;;8.00;99.90;;;;;;5061462;28;20207;-36
2021/03/20 04:31:27;;;;;;;1.60;1.50;;;8.00;99.90;;;;;;5061583;28;20202;-35
2021/03/20 04:34:04;;;;;;;1.75;1.60;;;8.00;99.90;;;;;;5062283;28;20292;-36
2021/03/20 04:36:42;;;;;;;2.85;1.42;;;8.00;99.90;;;;;;5059969;28;20300;-36
2021/03/20 04:39:16;;;;;;;2.45;1.65;;;8.00;99.90;;;;;;5048804;28;20217;-36
2021/03/20 04:41:51;;;;;;;2.10;1.63;;;8.00;99.90;;;;;;5059978;28;20371;-36
2021/03/20 04:44:21;;;;;;;1.88;1.60;;;8.10;99.90;;;;;;5094348;28;20276;-36
2021/03/20 04:46:59;;;;;;;4.13;1.88;;;8.10;99.90;;;;;;5124187;28;20195;-36
2021/03/20 04:49:40;;;;;;;2.47;1.35;;;8.10;99.90;;;;;;5122569;28;20357;-36
2021/03/20 04:52:20;;;;;;;1.83;1.00;;;8.20;99.90;;;;;;5124035;28;20268;-37
2021/03/20 04:54:52;;;;;;;2.40;1.48;;;8.30;99.90;;;;;;5124720;28;20545;-36
2021/03/20 04:57:30;;;;;;;2.47;1.20;;;8.30;99.90;;;;;;5123053;28;20281;-36
2021/03/20 05:00:07;;;;;;;3.13;1.67;;;8.30;99.90;;;;;;5123814;28;20240;-37
2021/03/20 05:02:43;;;;;;;3.90;1.95;;;8.40;99.90;;;;;;5122297;28;20253;-37
2021/03/20 05:05:22;;;;;;;2.45;1.10;;;8.40;99.90;;;;;;5124187;28;20229;-33
2021/03/20 05:07:53;;;;;;;1.95;1.10;;;8.50;99.90;;;;;;5123761;28;20196;-35
2021/03/20 05:10:32;;;;;;;1.50;0.98;;;8.50;99.90;;;;;;5122566;28;20527;-35
2021/03/20 05:13:04;;;;;;;2.95;1.00;;;8.50;99.90;;;;;;5122913;28;20208;-36
2021/03/20 05:15:35;;;;;;;3.88;1.35;;;8.60;99.90;;;;;;5123954;28;20304;-35
2021/03/20 05:18:06;;;;;;;2.80;1.05;;;8.50;99.90;;;;;;5120520;28;20200;-35
2021/03/20 05:20:36;;;;;;;2.38;1.25;;;8.60;99.90;;;;;;5123844;28;20204;-36
2021/03/20 05:23:06;;;;;;;3.15;1.48;;;8.60;99.90;;;;;;5123686;28;20208;-35
2021/03/20 05:25:37;;;;;;;1.05;0.90;;;8.60;99.90;;;;;;5123970;28;20201;-36
2021/03/20 05:28:08;;;;;;;3.10;1.08;;;8.60;99.90;;;;;;5122081;28;20200;-35
2021/03/20 05:30:38;;;;;;;1.60;0.95;;;8.60;99.90;;;;;;5121577;28;20205;-35
2021/03/20 05:33:08;;;;;;;6.28;1.33;;;8.60;99.90;;;;;;5121612;28;20312;-35
2021/03/20 05:35:38;;;;;;;1.05;0.80;;;8.60;99.90;;;;;;5123698;28;20222;-36
2021/03/20 05:38:11;;;;;;;1.95;0.85;;;8.60;99.90;;;;;;5121575;28;20318;-35
2021/03/20 05:40:43;;;;;;;2.90;1.25;;;8.60;99.90;;;;;;5122351;28;20235;-34
2021/03/20 05:43:30;;;;;;;1.83;1.08;;;8.50;99.90;;;;;;5121304;28;20204;-34
2021/03/20 05:46:15;;;;;;;1.80;0.70;;;8.50;99.90;;;;;;5122960;28;20230;-34
2021/03/20 05:48:59;;;;;;;1.40;0.88;;;8.60;99.90;;;;;;5123135;28;20244;-34
2021/03/20 05:52:02;;;;;;;1.50;1.00;;;8.50;99.90;;;;;;5123422;28;20624;-34
2021/03/20 05:54:53;;;;;;;2.22;1.30;;;8.50;99.90;;;;;;5122951;28;20203;-34
2021/03/20 05:57:32;;;;;;;1.58;0.70;;;8.50;99.90;;;;;;5122541;28;20234;-34
2021/03/20 06:00:14;;;;;;;2.08;0.80;;;8.50;99.90;;;;;;5122294;28;20211;-36
2021/03/20 06:03:09;;;;;;;1.63;0.85;;;8.50;99.90;;;;;;5108245;28;20200;-36
2021/03/20 06:05:50;;;;;;;1.35;0.88;;;8.50;99.90;;;;;;5123218;28;20239;-36
2021/03/20 06:08:31;;;;;;;2.17;1.02;;;8.50;99.90;;;;;;5123007;28;20268;-36
2021/03/20 06:11:05;;;;;;;1.05;0.82;;;8.40;99.90;;;;;;5111034;28;20332;-36
2021/03/20 06:14:02;;;;;;;1.63;0.70;;;8.50;99.90;;;;;;5121309;28;20200;-36
2021/03/20 06:16:36;;;;;;;1.52;0.90;;;8.40;99.90;;;;;;5120368;28;20219;-36
2021/03/20 06:19:29;;;;;;;4.35;1.08;;;8.40;99.90;;;;;;5122387;28;20203;-35
2021/03/20 06:22:26;;;;;;;3.30;0.85;;;8.30;99.90;;;;;;5118918;28;20219;-34
2021/03/20 06:25:05;;;;;;;1.00;0.90;;;8.40;99.90;;;;;;5109665;28;20211;-35
2021/03/20 06:27:40;;;;;;;1.25;0.95;;;8.40;99.90;;;;;;5121743;28;20208;-34
2021/03/20 06:30:30;;;;;;;3.95;1.10;;;8.40;99.90;;;;;;5123033;28;20207;-33
2021/03/20 06:33:04;;;;;;;1.75;1.30;;;8.40;99.90;;;;;;5122417;28;20203;-34
2021/03/20 06:35:38;;;;;;;1.75;1.00;;;8.50;99.90;;;;;;5123092;28;20211;-37
2021/03/20 06:38:17;;;;;;;1.10;1.00;;;8.50;99.90;;;;;;5122211;28;20207;-35
2021/03/20 06:40:57;;;;;;;2.47;0.90;;;8.50;99.90;;;;;;5122271;28;20246;-35
2021/03/20 06:43:49;;;;;;;2.25;0.93;;;8.50;99.90;;;;;;5122474;28;20200;-37
2021/03/20 06:46:29;;;;;;;0.98;0.80;;;8.40;99.90;;;;;;5121887;28;20213;-35
2021/03/20 06:49:00;;;;;;;3.38;1.30;;;8.50;99.90;;;;;;5122953;28;20227;-35
2021/03/20 06:51:31;;;;;;;2.10;0.93;;;8.40;99.90;;;;;;5122989;28;20299;-35
2021/03/20 06:54:07;;;;;;;2.28;1.40;;;8.50;99.90;;;;;;5123103;28;20253;-35
2021/03/20 06:56:38;;;;;;;3.10;1.02;;;8.50;99.90;;;;;;5118882;28;20245;-35
2021/03/20 06:59:12;;;;;;;1.30;1.20;;;8.40;99.90;;;;;;5122473;28;20196;-36
2021/03/20 07:01:52;;;;;;;3.80;1.42;;;8.40;99.90;;;;;;5123102;28;20632;-36
2021/03/20 07:04:56;;;;;;;1.80;1.00;;;8.40;99.90;;;;;;5122631;28;20265;-36
2021/03/20 07:07:53;;;;;;;3.78;1.25;;;8.30;99.90;;;;;;5112709;28;20208;-35
2021/03/20 07:10:36;;;;;;;1.65;0.80;;;8.40;99.90;;;;;;5122282;28;20200;-36
2021/03/20 07:13:19;;;;;;;3.50;1.25;;;8.30;99.90;;;;;;5118543;28;20200;-35
2021/03/20 07:16:05;;;;;;;2.60;1.00;;;8.20;99.90;;;;;;5122929;28;20210;-35
2021/03/20 07:18:39;;;;;;;1.52;1.00;;;8.30;99.90;;;;;;5115465;28;20188;-35
2021/03/20 07:21:29;;;;;;;1.40;0.90;;;8.10;99.90;;;;;;5122916;28;20651;-36
2021/03/20 07:24:04;;;;;;;1.13;0.80;;;8.20;99.90;;;;;;5122997;28;20302;-36
2021/03/20 07:26:48;;;;;;;2.45;0.90;;;8.20;99.90;;;;;;5115462;28;20211;-36
2021/03/20 07:29:19;;;;;;;1.92;1.48;;;8.20;99.90;;;;;;5126393;28;20230;-36
2021/03/20 07:31:58;;;;;;;1.15;0.82;;;8.20;99.90;;;;;;5120629;28;20300;-36
2021/03/20 07:34:33;;;;;;;4.03;1.27;;;8.20;99.90;;;;;;5125799;28;20240;-36
2021/03/20 07:37:08;;;;;;;2.55;1.15;;;8.20;99.90;;;;;;5126033;28;20230;-36
2021/03/20 07:39:44;;;;;;;2.63;1.00;;;8.20;99.90;;;;;;5126135;28;20202;-37
2021/03/20 07:42:34;;;;;;;2.67;1.48;;;8.20;99.90;;;;;;5125483;28;20235;-37
2021/03/20 07:45:07;;;;;;;2.03;1.20;;;8.10;99.90;;;;;;5125881;28;20207;-35
2021/03/20 07:47:40;;;;;;;1.33;1.10;;;8.10;99.90;;;;;;5125822;28;20207;-35
2021/03/20 07:50:26;;;;;;;3.30;1.30;;;8.10;99.90;;;;;;5123485;28;20196;-35
2021/03/20 07:53:09;;;;;;;1.80;1.00;;;8.10;99.90;;;;;;5126077;28;20604;-33
2021/03/20 07:55:59;;;;;;;3.83;0.95;;;8.10;99.90;;;;;;5125323;28;20210;-35
2021/03/20 07:58:37;;;;;;;2.22;0.90;;;8.20;99.90;;;;;;5124996;28;20207;-35
2021/03/20 08:01:24;;;;;;;0.95;0.88;;;8.10;99.90;;;;;;5116855;28;20212;-36
2021/03/20 08:03:56;;;;;;;4.68;1.10;;;8.10;99.90;;;;;;5123247;28;20200;-35
2021/03/20 08:06:41;;;;;;;2.20;1.13;;;8.10;99.90;;;;;;5125180;28;20200;-35
2021/03/20 08:09:23;;;;;;;2.33;1.15;;;8.20;99.90;;;;;;5125851;28;20204;-35
2021/03/20 08:12:11;;;;;;;1.80;1.05;;;8.20;99.90;;;;;;5124365;28;20208;-35
2021/03/20 08:15:05;;;;;;;1.25;1.20;;;8.30;99.90;;;;;;5114620;28;20223;-37
2021/03/20 08:17:35;;;;;;;2.25;1.10;;;8.40;99.90;;;;;;5125170;28;20219;-37
2021/03/20 08:20:06;;;;;;;1.70;1.00;;;8.40;99.90;;;;;;5125658;28;20211;-37
2021/03/20 08:23:12;;;;;;;2.53;1.20;;;8.40;99.90;;;;;;5109476;28;20192;-36
2021/03/20 08:25:58;;;;;;;3.28;0.88;;;8.40;99.90;;;;;;5124314;28;20188;-37
2021/03/20 08:28:47;;;;;;;4.57;1.30;;;8.40;99.90;;;;;;5124259;28;20271;-35
2021/03/20 08:31:42;;;;;;;2.38;0.70;;;8.40;99.90;;;;;;5116124;28;20187;-36
2021/03/20 08:34:19;;;;;;;1.42;1.33;;;8.40;99.90;;;;;;5125639;28;20192;-37
2021/03/20 08:37:04;;;;;;;2.95;1.40;;;8.40;99.90;;;;;;5120287;28;20223;-36
2021/03/20 08:39:50;;;;;;;2.35;0.90;;;8.50;99.90;;;;;;5125078;28;20200;-37
2021/03/20 08:42:32;;;;;;;3.15;1.30;;;8.50;99.90;;;;;;5122628;28;20232;-36
2021/03/20 08:45:20;;;;;;;1.10;0.90;;;8.50;99.90;;;;;;5125032;28;20223;-36
2021/03/20 08:48:04;;;;;;;1.35;0.90;;;8.50;99.90;;;;;;5119326;28;20207;-36
2021/03/20 08:50:43;;;;;;;2.15;1.40;;;8.50;99.90;;;;;;5122031;28;20210;-36
2021/03/20 08:53:25;;;;;;;5.88;1.40;;;8.50;99.90;;;;;;5124671;28;20225;-35
2021/03/20 08:56:10;;;;;;;2.38;0.90;;;8.50;99.90;;;;;;5123736;28;20608;-35
2021/03/20 08:58:55;;;;;;;2.45;1.52;;;8.60;99.90;;;;;;5122841;28;20191;-35
2021/03/20 09:01:32;;;;;;;2.75;1.10;;;8.50;99.90;;;;;;5124846;28;20547;-34
2021/03/20 09:04:06;;;;;;;2.60;0.80;;;8.50;99.90;;;;;;5124452;28;20231;-35
2021/03/20 09:06:40;;;;;;;3.70;0.70;;;8.50;99.90;;;;;;5120581;28;20272;-35
2021/03/20 09:09:17;;;;;;;1.70;0.90;;;8.50;99.90;;;;;;5113571;28;20199;-36
2021/03/20 09:11:55;;;;;;;2.88;1.05;;;8.40;99.90;;;;;;5123398;28;20196;-35
2021/03/20 09:14:29;;;;;;;1.33;0.90;;;8.40;99.90;;;;;;5124221;28;20215;-35
2021/03/20 09:17:02;;;;;;;2.80;1.00;;;8.50;99.90;;;;;;5124404;28;20306;-36
2021/03/20 09:19:35;;;;;;;2.30;0.98;;;8.50;99.90;;;;;;5123913;28;20228;-35
2021/03/20 09:22:09;;;;;;;1.92;0.90;;;8.60;99.90;;;;;;5124321;28;20199;-35
2021/03/20 09:24:48;;;;;;;3.08;0.90;;;8.60;99.90;;;;;;5123989;28;20200;-35
2021/03/20 09:27:51;;;;;;;2.53;0.90;;;8.60;99.90;;;;;;5122831;28;20203;-34
2021/03/20 09:30:31;;;;;;;1.50;0.57;;;8.60;99.90;;;;;;5124235;28;20368;-34
2021/03/20 09:33:02;;;;;;;2.88;2.25;;;8.60;99.90;;;;;;5123294;28;20230;-35
2021/03/20 09:35:43;;;;;;;2.78;0.93;;;8.60;99.90;;;;;;5123776;28;20230;-35
2021/03/20 09:38:14;;;;;;;1.65;1.35;;;8.50;99.90;;;;;;5123904;28;20592;-35
2021/03/20 09:40:50;;;;;;;2.13;0.80;;;8.50;99.90;;;;;;5123725;28;20257;-35
2021/03/20 09:43:40;;;;;;;1.88;0.85;;;8.50;99.90;;;;;;5122593;28;20204;-35
2021/03/20 09:46:44;;;;;;;1.25;0.80;;;8.50;99.90;;;;;;5123414;28;20208;-35
2021/03/20 09:49:39;;;;;;;2.08;1.00;;;8.50;99.90;;;;;;5122255;28;20206;-35
2021/03/20 09:52:10;;;;;;;1.58;0.90;;;8.40;99.90;;;;;;5123723;28;20200;-34
2021/03/20 09:54:43;;;;;;;2.80;0.98;;;8.50;99.90;;;;;;5123596;28;20203;-34
2021/03/20 09:57:52;;;;;;;1.83;0.95;;;8.50;99.90;;;;;;5122197;28;20249;-34
2021/03/20 10:01:03;;;;;;;3.30;1.20;;;8.60;99.90;;;;;;5123368;28;20208;-34
2021/03/20 10:03:54;;;;;;;2.25;0.90;;;8.50;99.90;;;;;;5115972;28;20215;-35
2021/03/20 10:06:34;;;;;;;2.50;0.90;;;8.50;99.90;;;;;;5122024;28;20204;-34
2021/03/20 10:09:24;;;;;;;1.95;0.90;;;8.40;99.90;;;;;;5121820;28;20236;-33
2021/03/20 10:12:20;;;;;;;1.58;0.73;;;8.40;99.90;;;;;;5122807;28;20196;-34
2021/03/20 10:15:14;;;;;;;1.70;1.10;;;8.50;99.90;;;;;;5123234;28;20208;-35
2021/03/20 10:18:00;;;;;;;4.65;1.13;;;8.50;99.90;;;;;;5109114;28;20227;-35
2021/03/20 10:20:43;;;;;;;0.98;0.70;;;8.40;99.90;;;;;;5120183;28;20521;-35
2021/03/20 10:23:18;;;;;;;1.85;0.85;;;8.40;99.90;;;;;;5112496;28;20203;-33
2021/03/20 10:25:52;;;;;;;2.15;0.80;;;8.30;99.90;;;;;;5123053;28;20199;-33
2021/03/20 10:28:29;;;;;;;0.80;0.73;;;8.30;99.90;;;;;;5121828;28;20203;-34
2021/03/20 10:31:03;;;;;;;2.28;0.70;;;8.30;99.90;;;;;;5123299;28;20275;-35
2021/03/20 10:33:35;;;;;;;1.85;0.98;;;8.30;99.90;;;;;;5122100;28;20215;-35
2021/03/20 10:36:11;;;;;;;0.70;0.70;;;8.20;99.90;;;;;;5123197;28;20259;-35
2021/03/20 10:38:43;;;;;;;2.20;0.73;;;8.20;99.90;;;;;;5123465;28;20225;-35
2021/03/20 10:41:21;;;;;;;1.60;1.13;;;8.20;99.90;;;;;;5121853;28;20280;-33
2021/03/20 10:43:54;;;;;;;2.75;1.02;;;8.30;99.90;;;;;;5123756;28;20267;-33
2021/03/20 10:46:26;;;;;;;2.33;1.23;;;8.20;99.90;;;;;;5122347;28;20215;-34
2021/03/20 10:49:01;;;;;;;1.42;0.93;;;8.20;99.90;;;;;;5123265;28;20289;-34
2021/03/20 10:51:39;;;;;;;2.50;1.67;;;8.30;99.90;;;;;;5123173;28;20199;-33
2021/03/20 10:54:18;;;;;;;1.67;0.90;;;8.30;99.90;;;;;;5123825;28;20288;-33
2021/03/20 10:56:51;;;;;;;2.40;1.00;;;8.20;99.90;;;;;;5122051;28;20223;-33
2021/03/20 10:59:32;;;;;;;1.77;0.82;;;8.10;99.90;;;;;;5123994;28;20251;-34
2021/03/20 11:02:21;;;;;;;3.13;1.25;;;8.00;99.90;;;;;;5126369;28;20647;-33
2021/03/20 11:04:53;;;;;;;1.65;1.00;;;7.90;99.90;;;;;;5113975;28;20227;-33
2021/03/20 11:07:25;;;;;;;2.75;1.48;;;7.80;99.90;;;;;;5126835;28;20199;-33
2021/03/20 11:10:09;;;;;;;4.45;1.38;;;7.60;99.90;;;;;;5126808;28;20208;-32
2021/03/20 11:12:39;;;;;;;4.63;1.40;;;7.60;99.90;;;;;;5126178;28;20204;-34
2021/03/20 11:15:24;;;;;;;1.70;1.20;;;7.50;99.90;;;;;;5126992;28;20214;-35
2021/03/20 11:17:55;;;;;;;2.10;1.90;;;7.50;99.90;;;;;;5126468;28;20231;-34
2021/03/20 11:20:32;;;;;;;1.52;1.08;;;7.50;99.90;;;;;;5126351;28;20200;-34
2021/03/20 11:23:03;;;;;;;1.80;1.55;;;7.40;99.90;;;;;;5114475;28;20226;-34
2021/03/20 11:25:40;;;;;;;3.60;1.50;;;7.40;99.90;;;;;;5127014;28;20211;-35
2021/03/20 11:28:15;;;;;;;2.92;2.17;;;7.40;99.90;;;;;;5124938;28;20219;-34
2021/03/20 11:30:48;;;;;;;2.03;1.23;;;7.30;99.90;;;;;;5126245;28;20196;-34
2021/03/20 11:33:21;;;;;;;3.95;1.60;;;7.30;99.90;;;;;;5126681;28;20199;-34
2021/03/20 11:35:54;;;;;;;9.32;1.67;;;7.30;99.90;;;;;;5126370;28;20226;-34
2021/03/20 11:38:25;;;;;;;1.45;1.08;;;7.20;99.90;;;;;;5125198;28;20227;-35
2021/03/20 11:41:19;;;;;;;4.13;1.85;;;7.20;99.90;;;;;;5125368;28;20246;-35
2021/03/20 11:43:59;;;;;;;1.08;1.05;;;7.10;99.90;;;;;;5126292;28;20203;-35
2021/03/20 11:46:32;;;;;;;2.55;1.52;;;7.10;99.90;;;;;;5126237;28;20200;-35
2021/03/20 11:49:07;;;;;;;6.57;2.08;;;7.00;99.90;;;;;;5126598;28;20195;-35
2021/03/20 11:51:43;;;;;;;4.57;1.58;;;7.00;99.90;;;;;;5126161;28;20200;-35
2021/03/20 11:54:27;;;;;;;3.10;1.50;;;7.00;99.90;;;;;;5126504;28;20195;-35
2021/03/20 11:57:02;;;;;;;2.95;1.52;;;7.00;99.90;;;;;;5125071;28;20231;-35
2021/03/20 11:59:36;;;;;;;2.45;1.63;;;7.00;99.90;;;;;;5126459;28;20208;-35
2021/03/20 12:02:08;;;;;;;2.38;1.05;;;7.00;99.90;;;;;;5125694;28;20208;-34
2021/03/20 12:04:39;;;;;;;3.38;1.30;;;7.00;99.90;;;;;;5113150;28;20188;-35
2021/03/20 12:07:24;;;;;;;2.58;1.52;;;7.00;99.90;;;;;;5126457;28;20237;-35
2021/03/20 12:09:55;;;;;;;1.30;1.20;;;7.10;99.90;;;;;;5126064;28;20547;-35
2021/03/20 12:12:55;;;;;;;2.67;1.25;;;7.20;99.90;;;;;;5123852;28;20245;-35
2021/03/20 12:15:29;;;;;;;1.95;1.67;;;7.20;99.90;;;;;;5042880;28;20199;-35
2021/03/20 12:18:02;;;;;;;1.70;1.30;;;7.20;99.90;;;;;;5042695;28;20234;-35
2021/03/20 12:20:40;;;;;;;2.05;0.90;;;7.30;99.90;;;;;;5041261;28;20206;-34
2021/03/20 12:23:19;;;;;;;4.13;1.15;;;7.20;99.90;;;;;;5042925;28;20541;-34
2021/03/20 12:25:52;;;;;;;1.63;1.15;;;7.20;99.90;;;;;;5043071;28;20202;-35
2021/03/20 12:28:36;;;;;;;2.35;1.40;;;7.20;99.90;;;;;;5029863;28;20206;-35
2021/03/20 12:31:29;;;;;;;3.10;1.35;;;7.20;99.90;;;;;;5042528;28;20302;-35
2021/03/20 12:34:02;;;;;;;1.48;0.90;;;7.20;99.90;;;;;;5040874;28;20337;-35
2021/03/20 12:36:40;;;;;;;1.60;0.70;;;7.10;99.90;;;;;;5027571;28;20245;-35
2021/03/20 12:39:12;;;;;;;1.52;0.90;;;7.10;99.90;;;;;;5042607;28;20212;-34
2021/03/20 12:41:45;;;;;;;1.92;1.00;;;7.00;99.90;;;;;;5041371;28;20273;-35
2021/03/20 12:44:19;;;;;;;1.17;1.00;;;7.00;99.90;;;;;;5041678;28;20202;-33
2021/03/20 12:46:51;;;;;;;2.00;1.08;;;7.00;99.90;;;;;;5042282;28;20198;-35
2021/03/20 12:49:25;;;;;;;1.50;0.80;;;6.90;99.90;;;;;;5041966;28;20237;-34
2021/03/20 12:51:59;;;;;;;1.25;0.80;;;6.90;99.90;;;;;;5113455;28;20212;-34
2021/03/20 12:54:33;;;;;;;1.50;0.93;;;6.90;99.90;;;;;;5124856;28;20248;-34
2021/03/20 12:57:04;;;;;;;1.17;1.10;;;7.00;99.90;;;;;;5124085;28;20266;-33
2021/03/20 12:59:35;;;;;;;2.28;1.00;;;7.10;99.90;;;;;;5124788;28;20200;-33
2021/03/20 13:02:05;;;;;;;1.50;1.02;;;7.10;99.90;;;;;;5124415;28;20195;-34
2021/03/20 13:04:36;;;;;;;1.65;1.27;;;7.10;99.90;;;;;;5125129;28;20575;-34
2021/03/20 13:07:07;;;;;;;2.20;1.10;;;7.20;99.90;;;;;;5124410;28;20204;-35
2021/03/20 13:09:38;;;;;;;1.23;1.10;;;7.10;99.90;;;;;;5124891;28;20335;-35
2021/03/20 13:12:10;;;;;;;1.20;1.10;;;7.10;99.90;;;;;;5122671;28;20204;-36
2021/03/20 13:14:42;;;;;;;2.40;1.42;;;7.00;99.90;;;;;;5124138;28;20234;-34
2021/03/20 13:17:13;;;;;;;2.55;1.30;;;7.00;99.90;;;;;;5124390;28;20227;-35
2021/03/20 13:19:48;;;;;;;1.30;0.95;;;7.00;99.90;;;;;;5124590;28;20240;-34
2021/03/20 13:22:18;;;;;;;3.30;1.27;;;7.00;99.90;;;;;;5123294;28;20231;-34
2021/03/20 13:24:49;;;;;;;2.67;0.88;;;7.00;99.90;;;;;;5124723;28;20264;-35
2021/03/20 13:27:19;;;;;;;1.05;0.95;;;7.00;99.90;;;;;;5123239;28;20583;-35
2021/03/20 13:29:52;;;;;;;1.75;1.08;;;7.10;99.90;;;;;;5124670;28;20225;-35
2021/03/20 13:32:22;;;;;;;1.95;0.90;;;7.10;99.90;;;;;;5123533;28;20267;-35
2021/03/20 13:34:52;;;;;;;0.98;0.88;;;7.00;99.90;;;;;;5124086;28;20222;-35
2021/03/20 13:37:22;;;;;;;1.30;0.90;;;7.00;99.90;;;;;;5123409;28;20300;-35
2021/03/20 13:39:53;;;;;;;5.60;1.45;;;7.00;99.90;;;;;;5123984;28;20231;-35
2021/03/20 13:42:23;;;;;;;2.65;1.10;;;7.00;99.90;;;;;;5122212;28;20239;-35
2021/03/20 13:44:55;;;;;;;1.02;0.90;;;7.00;99.90;;;;;;5124269;28;20196;-36
2021/03/20 13:47:25;;;;;;;1.95;1.27;;;7.00;99.90;;;;;;5123346;28;20230;-35
2021/03/20 13:49:58;;;;;;;2.63;1.20;;;7.00;99.90;;;;;;5124112;28;20203;-35